Time;durP1;ratioP1;P1;durP2;ratioP2;P2;SDS_P1;SDS_P2;PMS_P1;PMS_P2;Temp;Humidity;BMP_temperature;BMP_pressure;BME280_temperature;BME280_humidity;BME280_pressure;Samples;Min_cycle;Max_cycle;Signal;HPM_P1;HPM_P2
2023/04/27 00:01:34;;;;;;;20.55;13.57;;;7.40;75.20;;;;;;5001936;28;20477;-80
2023/04/27 00:04:00;;;;;;;19.02;13.55;;;7.40;75.10;;;;;;5008652;28;20075;-81
2023/04/27 00:06:26;;;;;;;21.23;12.93;;;7.40;74.90;;;;;;5012388;28;20021;-80
2023/04/27 00:08:52;;;;;;;17.77;13.15;;;7.40;74.80;;;;;;5008562;28;20045;-81
2023/04/27 00:11:17;;;;;;;21.38;12.35;;;7.30;74.70;;;;;;5007233;28;20026;-81
2023/04/27 00:13:43;;;;;;;20.48;13.93;;;7.30;74.90;;;;;;5007903;28;20032;-83
2023/04/27 00:16:09;;;;;;;21.60;13.02;;;7.10;75.30;;;;;;5008344;28;20370;-81
2023/04/27 00:18:35;;;;;;;19.38;13.05;;;7.20;75.30;;;;;;5001845;28;20420;-80
2023/04/27 00:21:01;;;;;;;20.17;12.95;;;7.30;75.30;;;;;;5005715;28;20040;-80
2023/04/27 00:23:27;;;;;;;22.42;13.88;;;7.30;75.10;;;;;;5003487;28;20018;-80
2023/04/27 00:25:52;;;;;;;22.35;14.70;;;7.30;75.00;;;;;;5000680;28;20405;-80
2023/04/27 00:28:18;;;;;;;23.10;13.32;;;7.30;75.00;;;;;;5001833;28;20393;-80
2023/04/27 00:30:44;;;;;;;23.42;12.77;;;7.30;75.10;;;;;;5005272;28;20516;-79
2023/04/27 00:33:09;;;;;;;19.65;12.77;;;7.30;75.00;;;;;;5013663;28;20034;-80
2023/04/27 00:35:35;;;;;;;17.58;11.85;;;7.30;74.90;;;;;;5004003;28;20021;-79
2023/04/27 00:38:01;;;;;;;18.52;12.15;;;7.40;74.70;;;;;;5012814;28;20201;-80
2023/04/27 00:40:26;;;;;;;18.85;12.10;;;7.40;74.50;;;;;;5007771;28;20053;-81
2023/04/27 00:42:52;;;;;;;19.40;12.73;;;7.40;74.60;;;;;;5011212;28;20466;-79
2023/04/27 00:45:18;;;;;;;21.20;13.18;;;7.40;74.80;;;;;;5009335;28;20041;-79
2023/04/27 00:47:44;;;;;;;20.45;12.52;;;7.40;74.90;;;;;;5010924;28;20110;-78
2023/04/27 00:50:11;;;;;;;19.67;11.85;;;7.40;74.90;;;;;;5013511;28;20022;-78
2023/04/27 00:52:37;;;;;;;16.85;11.85;;;7.40;74.80;;;;;;5006304;28;20415;-79
2023/04/27 00:55:03;;;;;;;17.65;12.50;;;7.40;74.80;;;;;;5004542;28;20018;-79
2023/04/27 00:57:30;;;;;;;18.38;12.27;;;7.40;74.60;;;;;;5013902;28;20037;-80
2023/04/27 00:59:55;;;;;;;18.90;12.68;;;7.40;74.60;;;;;;5008999;28;20038;-79
2023/04/27 01:02:21;;;;;;;21.48;12.82;;;7.30;74.70;;;;;;5019537;28;20465;-78
2023/04/27 01:04:49;;;;;;;19.15;12.93;;;7.20;74.70;;;;;;5005001;28;20036;-79
2023/04/27 01:07:15;;;;;;;18.50;12.27;;;7.30;74.50;;;;;;5010940;28;20167;-78
2023/04/27 01:09:41;;;;;;;18.60;12.35;;;7.20;74.30;;;;;;5020942;28;20462;-80
2023/04/27 01:12:07;;;;;;;20.80;12.88;;;7.10;74.50;;;;;;5004920;28;20261;-81
2023/04/27 01:14:34;;;;;;;21.00;13.63;;;7.10;74.50;;;;;;5005328;28;20640;-80
2023/04/27 01:17:00;;;;;;;19.65;12.80;;;7.10;74.70;;;;;;5008011;28;20064;-80
2023/04/27 01:19:26;;;;;;;19.15;12.48;;;7.00;74.60;;;;;;5009005;28;20647;-80
2023/04/27 01:21:51;;;;;;;21.27;12.27;;;7.00;74.60;;;;;;5008289;28;20026;-80
2023/04/27 01:24:17;;;;;;;18.08;12.95;;;7.00;74.80;;;;;;5009028;28;20408;-79
2023/04/27 01:26:43;;;;;;;20.73;13.43;;;6.90;74.80;;;;;;5007091;28;20512;-79
2023/04/27 01:29:09;;;;;;;19.95;13.63;;;6.90;74.80;;;;;;5006020;28;20019;-83
2023/04/27 01:31:35;;;;;;;20.35;12.85;;;6.80;74.60;;;;;;5009950;28;20109;-79
2023/04/27 01:34:01;;;;;;;18.85;12.60;;;6.90;74.70;;;;;;5010143;28;20172;-80
2023/04/27 01:36:26;;;;;;;18.67;12.30;;;6.80;74.80;;;;;;5011294;28;20030;-80
2023/04/27 01:38:52;;;;;;;19.35;13.38;;;6.70;74.80;;;;;;5004402;28;20026;-80
2023/04/27 01:41:17;;;;;;;20.65;14.85;;;6.70;74.90;;;;;;5007379;28;20029;-81
2023/04/27 01:43:43;;;;;;;21.80;13.82;;;6.60;75.00;;;;;;5025842;28;20424;-79
2023/04/27 01:46:13;;;;;;;23.00;13.65;;;6.60;75.20;;;;;;5012030;28;20042;-80
2023/04/27 01:48:39;;;;;;;20.08;13.98;;;6.60;75.30;;;;;;5001808;28;20022;-81
2023/04/27 01:51:05;;;;;;;23.70;14.18;;;6.50;75.40;;;;;;5008296;28;20032;-80
2023/04/27 01:53:31;;;;;;;18.73;13.40;;;6.50;75.50;;;;;;5013335;28;20117;-80
2023/04/27 01:55:58;;;;;;;17.83;12.82;;;6.40;75.50;;;;;;5011639;28;20032;-81
2023/04/27 01:58:24;;;;;;;24.42;14.30;;;6.40;75.70;;;;;;5006203;28;20022;-78
2023/04/27 02:00:50;;;;;;;21.60;13.45;;;6.40;75.80;;;;;;5004676;28;20437;-80
2023/04/27 02:03:16;;;;;;;18.95;13.48;;;6.40;75.90;;;;;;5005495;28;20026;-80
2023/04/27 02:05:42;;;;;;;21.50;14.45;;;6.30;75.90;;;;;;5015300;28;20025;-80
2023/04/27 02:08:08;;;;;;;19.88;13.77;;;6.20;76.10;;;;;;5005052;28;20354;-80
2023/04/27 02:10:34;;;;;;;22.33;14.85;;;6.20;76.10;;;;;;5011102;28;20030;-81
2023/04/27 02:13:00;;;;;;;21.48;14.75;;;6.20;75.90;;;;;;5005817;28;20382;-80
2023/04/27 02:15:26;;;;;;;20.10;14.73;;;6.10;76.00;;;;;;5012978;28;21255;-79
2023/04/27 02:17:52;;;;;;;20.33;14.35;;;6.10;76.10;;;;;;5003257;28;20145;-79
2023/04/27 02:20:17;;;;;;;22.38;14.85;;;6.00;76.10;;;;;;4998207;28;20434;-79
2023/04/27 02:22:43;;;;;;;20.70;14.77;;;6.00;76.30;;;;;;5004447;28;20125;-80
2023/04/27 02:25:10;;;;;;;20.50;14.65;;;5.90;76.40;;;;;;5021164;28;20018;-80
2023/04/27 02:27:40;;;;;;;21.00;14.80;;;5.90;76.40;;;;;;5004984;28;20544;-79
2023/04/27 02:30:07;;;;;;;18.83;13.25;;;5.80;76.60;;;;;;5003274;28;20026;-79
2023/04/27 02:32:33;;;;;;;24.00;15.35;;;5.90;76.60;;;;;;5011231;28;20474;-79
2023/04/27 02:34:58;;;;;;;21.13;14.40;;;5.80;76.60;;;;;;5005880;28;20022;-79
2023/04/27 02:37:24;;;;;;;22.13;14.20;;;5.80;76.60;;;;;;5013135;28;20038;-78
2023/04/27 02:39:50;;;;;;;24.25;15.38;;;5.70;76.70;;;;;;5006713;28;20125;-79
2023/04/27 02:42:16;;;;;;;20.98;14.25;;;5.60;77.00;;;;;;5010615;28;20489;-79
2023/04/27 02:44:41;;;;;;;23.83;15.07;;;5.70;77.20;;;;;;5008742;28;20373;-80
2023/04/27 02:47:08;;;;;;;22.25;14.60;;;5.60;77.30;;;;;;5007952;28;20061;-79
2023/04/27 02:49:34;;;;;;;22.00;15.10;;;5.60;77.50;;;;;;4998756;28;20030;-78
2023/04/27 02:51:59;;;;;;;22.75;14.02;;;5.60;77.60;;;;;;5002427;28;20105;-80
2023/04/27 02:54:25;;;;;;;22.52;15.18;;;5.60;77.50;;;;;;5012448;28;20108;-80
2023/04/27 02:56:51;;;;;;;22.42;14.68;;;5.60;77.40;;;;;;5002280;28;20061;-79
2023/04/27 02:59:16;;;;;;;21.02;15.48;;;5.60;77.50;;;;;;4996564;28;20036;-79
2023/04/27 03:01:42;;;;;;;21.92;14.73;;;5.50;77.60;;;;;;5007045;28;20060;-79
2023/04/27 03:04:08;;;;;;;21.55;14.57;;;5.50;77.70;;;;;;5004081;28;20049;-79
2023/04/27 03:06:33;;;;;;;23.27;15.13;;;5.50;77.80;;;;;;5008829;28;20042;-79
2023/04/27 03:08:59;;;;;;;20.80;13.98;;;5.50;77.80;;;;;;5010172;28;20037;-79
2023/04/27 03:11:25;;;;;;;20.67;14.73;;;5.50;77.70;;;;;;5012650;28;20042;-79
2023/04/27 03:13:51;;;;;;;20.27;14.55;;;5.50;77.50;;;;;;5015417;28;20121;-79
2023/04/27 03:16:16;;;;;;;21.85;15.77;;;5.40;77.50;;;;;;5008116;28;20053;-79
2023/04/27 03:18:42;;;;;;;25.42;15.90;;;5.40;77.70;;;;;;5008211;28;20489;-80
2023/04/27 03:21:12;;;;;;;21.48;15.48;;;5.30;77.80;;;;;;5016769;28;20041;-80
2023/04/27 03:23:38;;;;;;;23.25;15.02;;;5.30;77.90;;;;;;5030359;28;20045;-78
2023/04/27 03:26:08;;;;;;;22.38;15.15;;;5.30;77.90;;;;;;5023815;28;20038;-79
2023/04/27 03:28:34;;;;;;;24.35;16.60;;;5.30;77.80;;;;;;5022225;28;20034;-79
2023/04/27 03:31:03;;;;;;;24.88;16.67;;;5.20;78.00;;;;;;5013185;28;20073;-80
2023/04/27 03:33:28;;;;;;;21.02;14.68;;;5.10;78.10;;;;;;5016766;28;20030;-81
2023/04/27 03:35:58;;;;;;;23.92;16.75;;;5.10;78.40;;;;;;5017325;28;20018;-78
2023/04/27 03:38:25;;;;;;;22.88;15.93;;;5.10;78.50;;;;;;5015098;28;20030;-79
2023/04/27 03:40:52;;;;;;;23.17;16.30;;;5.10;78.60;;;;;;5011903;28;20091;-80
2023/04/27 03:43:19;;;;;;;23.80;16.08;;;5.10;78.60;;;;;;5014753;28;20025;-80
2023/04/27 03:45:45;;;;;;;23.95;15.35;;;5.10;78.60;;;;;;5012071;28;20635;-80
2023/04/27 03:48:11;;;;;;;23.50;16.33;;;5.10;78.70;;;;;;5012605;28;20069;-81
2023/04/27 03:50:36;;;;;;;23.70;16.23;;;5.10;78.60;;;;;;5018161;28;20479;-79
2023/04/27 03:53:02;;;;;;;21.63;15.68;;;5.10;78.70;;;;;;5014037;28;20116;-79
2023/04/27 03:55:28;;;;;;;24.50;16.42;;;5.10;78.50;;;;;;5013798;28;20362;-79
2023/04/27 03:57:54;;;;;;;25.83;17.27;;;5.10;78.70;;;;;;5026964;28;20057;-79
2023/04/27 04:00:19;;;;;;;25.80;17.33;;;5.00;78.90;;;;;;5009368;28;20030;-80
2023/04/27 04:02:45;;;;;;;26.15;17.23;;;5.00;79.20;;;;;;5005518;28;20026;-79
2023/04/27 04:05:13;;;;;;;26.98;18.25;;;5.00;79.10;;;;;;5012841;28;20381;-79
2023/04/27 04:07:40;;;;;;;24.63;17.92;;;5.10;79.10;;;;;;5008891;28;20037;-79
2023/04/27 04:10:06;;;;;;;22.83;15.90;;;5.10;79.10;;;;;;5014081;28;20769;-79
2023/04/27 04:12:32;;;;;;;24.20;16.80;;;5.00;78.90;;;;;;5014426;28;20079;-79
2023/04/27 04:14:58;;;;;;;26.15;16.85;;;5.10;78.90;;;;;;5010012;28;20057;-80
2023/04/27 04:17:23;;;;;;;22.83;16.08;;;5.00;78.70;;;;;;5006797;28;20022;-80
2023/04/27 04:19:49;;;;;;;24.55;17.13;;;5.00;78.70;;;;;;5003082;28;20076;-80
2023/04/27 04:22:15;;;;;;;25.42;17.35;;;4.90;79.00;;;;;;5005905;28;20448;-80
2023/04/27 04:24:40;;;;;;;25.65;17.30;;;4.90;79.10;;;;;;5002558;28;20417;-79
2023/04/27 04:27:06;;;;;;;28.85;17.20;;;5.00;79.30;;;;;;4998355;28;20478;-80
2023/04/27 04:29:32;;;;;;;24.38;17.02;;;5.00;79.20;;;;;;5006638;28;20022;-80
2023/04/27 04:31:58;;;;;;;24.55;17.52;;;5.00;79.20;;;;;;5005178;28;20036;-80
2023/04/27 04:34:23;;;;;;;26.50;17.25;;;5.00;79.20;;;;;;5010128;28;20018;-79
2023/04/27 04:36:53;;;;;;;24.48;16.98;;;5.00;79.20;;;;;;5003369;28;20235;-80
2023/04/27 04:39:21;;;;;;;23.88;16.08;;;5.00;79.20;;;;;;4997563;28;20038;-79
2023/04/27 04:41:51;;;;;;;22.92;16.02;;;5.10;79.20;;;;;;4996324;28;20053;-79
2023/04/27 04:44:19;;;;;;;22.90;16.45;;;5.10;79.10;;;;;;4999629;28;20053;-79
2023/04/27 04:46:45;;;;;;;24.23;16.05;;;5.10;79.00;;;;;;4996824;28;20478;-80
2023/04/27 04:49:11;;;;;;;23.13;16.88;;;5.20;78.80;;;;;;4998298;28;20022;-80
2023/04/27 04:51:41;;;;;;;23.52;15.82;;;5.20;78.70;;;;;;4994075;28;20335;-80
2023/04/27 04:54:07;;;;;;;25.27;16.98;;;5.30;78.30;;;;;;4995585;28;20189;-80
2023/04/27 04:56:33;;;;;;;32.15;18.77;;;5.30;78.00;;;;;;4997671;28;20056;-80
2023/04/27 04:58:58;;;;;;;27.30;18.52;;;5.30;78.10;;;;;;5018562;28;20532;-79
2023/04/27 05:01:24;;;;;;;26.40;17.60;;;5.30;78.30;;;;;;5004817;28;20037;-80
2023/04/27 05:03:50;;;;;;;25.80;16.40;;;5.40;78.20;;;;;;5008465;28;20032;-81
2023/04/27 05:06:16;;;;;;;25.38;16.17;;;5.40;78.00;;;;;;5006793;28;20041;-81
2023/04/27 05:08:41;;;;;;;25.70;17.00;;;5.40;78.00;;;;;;5014460;28;20420;-80
2023/04/27 05:11:07;;;;;;;24.73;16.85;;;5.40;78.00;;;;;;5009151;28;20248;-81
2023/04/27 05:13:34;;;;;;;24.80;16.95;;;5.40;78.00;;;;;;5012196;28;20357;-80
2023/04/27 05:16:05;;;;;;;29.73;17.92;;;5.50;78.00;;;;;;5005134;28;20048;-79
2023/04/27 05:18:32;;;;;;;24.90;17.05;;;5.60;78.00;;;;;;5009203;28;20040;-79
2023/04/27 05:20:58;;;;;;;26.77;17.77;;;5.60;77.80;;;;;;5012835;28;20045;-80
2023/04/27 05:23:24;;;;;;;22.58;15.88;;;5.60;77.70;;;;;;5013092;28;20018;-81
2023/04/27 05:25:50;;;;;;;21.20;15.20;;;5.80;77.60;;;;;;5017821;28;20029;-80
2023/04/27 05:28:16;;;;;;;24.90;15.82;;;5.80;77.50;;;;;;5011977;28;20022;-80
2023/04/27 05:30:41;;;;;;;30.45;17.60;;;5.80;77.00;;;;;;5011810;28;20041;-80
2023/04/27 05:33:07;;;;;;;21.70;15.18;;;5.80;76.90;;;;;;5010627;28;20034;-81
2023/04/27 05:35:33;;;;;;;24.10;15.38;;;5.90;77.10;;;;;;5010776;28;20036;-80
2023/04/27 05:37:59;;;;;;;20.15;15.52;;;6.00;77.20;;;;;;5010024;28;20056;-81
2023/04/27 05:40:25;;;;;;;21.67;15.18;;;6.10;77.20;;;;;;5002199;28;20058;-80
2023/04/27 05:42:51;;;;;;;24.02;16.55;;;6.20;76.90;;;;;;5007536;28;20049;-76
2023/04/27 05:45:17;;;;;;;21.88;15.32;;;6.20;76.40;;;;;;5011923;28;20061;-75
2023/04/27 05:47:42;;;;;;;25.05;16.00;;;6.30;76.40;;;;;;5006583;28;20060;-75
2023/04/27 05:50:08;;;;;;;23.27;16.35;;;6.50;76.00;;;;;;5008770;28;20498;-75
2023/04/27 05:52:35;;;;;;;22.27;16.15;;;6.50;75.70;;;;;;5010734;28;20813;-75
2023/04/27 05:55:00;;;;;;;24.85;16.17;;;6.40;75.60;;;;;;5000619;28;20056;-75
2023/04/27 05:57:26;;;;;;;23.73;15.10;;;6.50;76.00;;;;;;5005579;28;20420;-76
2023/04/27 05:59:52;;;;;;;24.63;15.13;;;6.60;75.80;;;;;;5008331;28;20117;-77
2023/04/27 06:02:18;;;;;;;24.70;16.27;;;6.70;75.70;;;;;;5007233;28;20025;-76
2023/04/27 06:04:45;;;;;;;25.73;15.25;;;6.80;75.30;;;;;;5002366;28;20121;-75
2023/04/27 06:07:12;;;;;;;23.20;15.10;;;7.00;75.00;;;;;;5006893;28;20029;-76
2023/04/27 06:09:38;;;;;;;22.83;15.45;;;7.20;74.80;;;;;;5005057;28;20080;-75
2023/04/27 06:12:05;;;;;;;23.92;15.75;;;7.20;74.10;;;;;;5005557;28;20053;-76
2023/04/27 06:14:32;;;;;;;24.58;16.40;;;7.40;73.50;;;;;;5002203;28;20121;-77
2023/04/27 06:16:58;;;;;;;23.27;16.42;;;7.40;73.40;;;;;;5004616;28;20152;-75
2023/04/27 06:19:24;;;;;;;21.80;15.15;;;7.50;73.30;;;;;;4996644;28;20401;-75
2023/04/27 06:21:50;;;;;;;22.50;16.02;;;7.50;73.10;;;;;;4998899;28;20036;-74
2023/04/27 06:24:16;;;;;;;22.55;14.20;;;7.60;73.00;;;;;;4998851;28;20358;-74
2023/04/27 06:26:43;;;;;;;24.73;15.93;;;7.70;73.00;;;;;;5003695;28;20044;-75
2023/04/27 06:29:09;;;;;;;25.95;16.02;;;7.90;73.00;;;;;;5011371;28;20045;-73
2023/04/27 06:31:34;;;;;;;21.30;16.17;;;8.00;72.20;;;;;;5004323;28;20030;-74
2023/04/27 06:34:00;;;;;;;22.00;16.08;;;8.10;72.30;;;;;;5007694;28;20408;-73
2023/04/27 06:36:27;;;;;;;23.20;15.93;;;8.20;71.40;;;;;;5007676;28;20030;-74
2023/04/27 06:38:55;;;;;;;25.30;16.67;;;8.30;71.30;;;;;;5011366;28;20097;-75
2023/04/27 06:41:21;;;;;;;27.05;16.25;;;8.50;71.00;;;;;;5005243;28;20042;-76
2023/04/27 06:43:47;;;;;;;21.45;15.30;;;8.70;70.70;;;;;;5008108;28;20032;-74
2023/04/27 06:46:13;;;;;;;22.35;16.05;;;9.10;70.10;;;;;;5002125;28;20050;-75
2023/04/27 06:48:38;;;;;;;25.42;16.38;;;9.10;68.90;;;;;;5005608;28;20057;-75
2023/04/27 06:51:04;;;;;;;21.55;15.55;;;9.10;68.20;;;;;;5005484;28;20374;-76
2023/04/27 06:53:30;;;;;;;25.13;16.92;;;8.90;68.70;;;;;;5007882;28;20018;-76
2023/04/27 06:55:56;;;;;;;21.67;15.45;;;9.10;69.10;;;;;;5000118;28;20444;-75
2023/04/27 06:58:22;;;;;;;28.25;17.35;;;9.00;68.50;;;;;;5021174;28;20018;-75
2023/04/27 07:00:48;;;;;;;24.33;15.85;;;9.10;68.80;;;;;;5004066;28;20036;-77
2023/04/27 07:03:14;;;;;;;25.85;17.85;;;9.40;68.70;;;;;;5004950;28;20058;-75
2023/04/27 07:05:40;;;;;;;21.85;15.77;;;9.60;67.00;;;;;;5003536;28;20390;-74
2023/04/27 07:08:05;;;;;;;25.70;16.48;;;9.60;66.50;;;;;;5004887;28;20151;-76
2023/04/27 07:10:31;;;;;;;23.10;16.90;;;9.90;66.30;;;;;;5004254;28;20160;-76
2023/04/27 07:12:57;;;;;;;27.35;18.45;;;10.10;65.70;;;;;;5009894;28;20053;-76
2023/04/27 07:15:23;;;;;;;24.88;17.48;;;10.10;64.70;;;;;;5007582;28;20034;-76
2023/04/27 07:17:52;;;;;;;24.45;17.00;;;10.10;63.60;;;;;;5004883;28;20041;-76
2023/04/27 07:20:19;;;;;;;24.70;17.17;;;10.20;64.70;;;;;;5005295;28;20026;-73
2023/04/27 07:22:44;;;;;;;27.85;17.80;;;10.20;64.50;;;;;;5002285;28;20480;-75
2023/04/27 07:25:10;;;;;;;23.42;16.23;;;10.40;64.50;;;;;;5002328;28;20015;-75
2023/04/27 07:27:37;;;;;;;25.13;17.15;;;10.60;63.60;;;;;;4998769;28;20281;-73
2023/04/27 07:30:04;;;;;;;24.98;17.77;;;10.80;62.70;;;;;;5004583;28;20472;-74
2023/04/27 07:32:30;;;;;;;27.63;18.15;;;11.10;62.30;;;;;;5002034;28;20046;-75
2023/04/27 07:34:56;;;;;;;26.45;18.13;;;11.10;61.50;;;;;;5016345;28;20156;-76
2023/04/27 07:37:22;;;;;;;25.58;16.98;;;11.30;61.20;;;;;;5010449;28;20037;-76
2023/04/27 07:39:50;;;;;;;27.67;17.98;;;11.40;61.00;;;;;;5000800;28;20105;-76
2023/04/27 07:42:17;;;;;;;22.33;16.80;;;11.50;60.40;;;;;;5004396;28;20171;-75
2023/04/27 07:44:43;;;;;;;27.80;17.50;;;11.50;59.70;;;;;;5003979;28;20030;-75
2023/04/27 07:47:09;;;;;;;27.75;17.90;;;11.80;59.70;;;;;;5004734;28;20042;-74
2023/04/27 07:49:39;;;;;;;23.58;16.42;;;11.80;58.20;;;;;;5007190;28;20372;-76
2023/04/27 07:52:04;;;;;;;25.58;17.48;;;11.80;57.90;;;;;;5006846;28;20030;-75
2023/04/27 07:54:30;;;;;;;27.75;16.50;;;11.80;57.00;;;;;;5006035;28;20458;-75
2023/04/27 07:56:56;;;;;;;23.08;17.15;;;11.80;58.10;;;;;;5005318;28;21468;-75
2023/04/27 07:59:21;;;;;;;26.33;17.45;;;11.90;57.80;;;;;;5008834;28;20355;-76
2023/04/27 08:01:47;;;;;;;28.20;17.48;;;12.10;57.40;;;;;;5006037;28;20038;-76
2023/04/27 08:04:15;;;;;;;27.50;17.67;;;12.10;56.90;;;;;;5008536;28;20071;-75
2023/04/27 08:06:42;;;;;;;28.80;18.40;;;12.20;56.90;;;;;;5010074;28;20029;-76
2023/04/27 08:09:09;;;;;;;26.13;18.00;;;12.30;56.30;;;;;;5006353;28;20137;-74
2023/04/27 08:11:38;;;;;;;32.67;19.05;;;12.40;56.00;;;;;;5012191;28;20443;-75
2023/04/27 08:14:05;;;;;;;26.58;17.73;;;12.60;55.90;;;;;;5008867;28;20130;-76
2023/04/27 08:16:32;;;;;;;25.75;17.00;;;12.80;55.50;;;;;;5008728;28;20030;-76
2023/04/27 08:19:00;;;;;;;28.08;19.02;;;12.90;55.70;;;;;;5004854;28;20022;-75
2023/04/27 08:21:27;;;;;;;26.90;18.88;;;12.90;55.20;;;;;;5008387;28;20372;-75
2023/04/27 08:23:53;;;;;;;33.35;19.42;;;12.80;55.40;;;;;;5006702;28;20544;-76
2023/04/27 08:26:18;;;;;;;26.95;18.25;;;13.10;55.40;;;;;;5006211;28;20030;-74
2023/04/27 08:28:44;;;;;;;30.67;19.95;;;13.10;54.60;;;;;;5009180;28;20350;-76
2023/04/27 08:31:10;;;;;;;28.30;18.92;;;13.20;54.70;;;;;;5008950;28;20045;-76
2023/04/27 08:33:36;;;;;;;28.67;19.70;;;13.20;54.30;;;;;;5017658;28;20021;-76
2023/04/27 08:36:01;;;;;;;26.90;18.65;;;13.40;53.60;;;;;;5011280;28;20026;-74
2023/04/27 08:38:27;;;;;;;26.25;19.08;;;13.70;54.10;;;;;;5010865;28;20424;-76
2023/04/27 08:40:53;;;;;;;25.30;18.05;;;13.80;52.80;;;;;;5010112;28;20477;-75
2023/04/27 08:43:18;;;;;;;25.00;17.85;;;13.90;52.00;;;;;;5014332;28;20113;-74
2023/04/27 08:45:48;;;;;;;31.50;18.88;;;13.90;51.90;;;;;;5010888;28;20057;-74
2023/04/27 08:48:14;;;;;;;27.35;18.17;;;14.10;51.30;;;;;;5008416;28;20373;-77
2023/04/27 08:50:43;;;;;;;23.08;17.00;;;14.10;51.40;;;;;;5007517;28;20552;-77
2023/04/27 08:53:17;;;;;;;25.05;17.42;;;14.10;51.40;;;;;;5001553;28;20095;-75
2023/04/27 08:55:43;;;;;;;22.23;15.98;;;14.00;49.70;;;;;;5011835;28;20424;-75
2023/04/27 08:58:08;;;;;;;23.08;16.92;;;14.10;47.40;;;;;;5011538;28;20029;-75
2023/04/27 09:00:41;;;;;;;25.48;16.58;;;14.10;49.10;;;;;;5003570;28;20630;-75
2023/04/27 09:03:23;;;;;;;24.23;16.60;;;14.30;48.60;;;;;;5016480;28;20619;-75
2023/04/27 09:05:49;;;;;;;22.33;16.10;;;14.50;47.20;;;;;;5009291;28;20422;-75
2023/04/27 09:08:15;;;;;;;21.70;16.23;;;14.20;46.60;;;;;;5010656;28;20018;-77
2023/04/27 09:10:44;;;;;;;23.05;16.65;;;14.30;47.30;;;;;;5003312;28;20113;-75
2023/04/27 09:13:10;;;;;;;24.73;16.55;;;14.20;47.70;;;;;;5011774;28;20026;-75
2023/04/27 09:15:46;;;;;;;27.60;16.73;;;14.30;48.50;;;;;;5006534;28;20029;-75
2023/04/27 09:18:17;;;;;;;23.38;17.13;;;14.60;48.40;;;;;;5006118;28;20793;-73
2023/04/27 09:20:50;;;;;;;23.77;15.95;;;14.90;47.50;;;;;;5007406;28;20080;-75
2023/04/27 09:23:30;;;;;;;22.38;15.95;;;14.80;45.90;;;;;;5013717;28;20025;-73
2023/04/27 09:26:00;;;;;;;22.15;16.00;;;15.00;46.80;;;;;;5003865;28;20462;-73
2023/04/27 09:28:27;;;;;;;21.58;14.30;;;14.80;43.90;;;;;;5009596;28;20450;-72
2023/04/27 09:30:58;;;;;;;22.02;15.45;;;14.60;44.20;;;;;;5000856;28;20033;-75
2023/04/27 09:33:34;;;;;;;21.98;16.20;;;14.60;44.60;;;;;;5008187;28;20014;-75
2023/04/27 09:36:02;;;;;;;22.35;15.07;;;14.90;44.30;;;;;;5004211;28;20033;-75
2023/04/27 09:38:28;;;;;;;20.98;15.38;;;14.70;43.60;;;;;;5004405;28;20225;-75
2023/04/27 09:40:55;;;;;;;18.77;14.02;;;14.90;44.00;;;;;;5008404;28;20060;-75
2023/04/27 09:43:22;;;;;;;22.10;14.82;;;15.00;43.30;;;;;;5005949;28;20018;-74
2023/04/27 09:45:48;;;;;;;17.80;13.82;;;15.10;44.10;;;;;;5005401;28;20075;-74
2023/04/27 09:48:14;;;;;;;20.17;14.27;;;15.40;42.80;;;;;;5015573;28;20021;-73
2023/04/27 09:50:41;;;;;;;20.80;14.48;;;15.10;42.20;;;;;;5003518;28;20366;-74
2023/04/27 09:53:16;;;;;;;20.30;14.50;;;14.90;42.50;;;;;;5009935;28;20033;-74
2023/04/27 09:55:47;;;;;;;17.83;13.80;;;14.90;43.80;;;;;;5006386;28;20032;-74
2023/04/27 09:58:13;;;;;;;18.08;13.25;;;15.30;43.20;;;;;;5009733;28;20518;-74
2023/04/27 10:00:51;;;;;;;20.20;14.00;;;15.50;42.90;;;;;;5007013;28;20125;-75
2023/04/27 10:03:40;;;;;;;18.13;13.25;;;15.50;40.90;;;;;;5009545;28;20029;-74
2023/04/27 10:06:42;;;;;;;19.58;13.95;;;15.60;41.60;;;;;;5011850;28;20060;-75
2023/04/27 10:09:09;;;;;;;18.73;14.20;;;15.60;41.40;;;;;;5004834;28;20014;-73
2023/04/27 10:11:48;;;;;;;18.85;13.65;;;15.30;41.90;;;;;;5009984;28;20085;-74
2023/04/27 10:14:18;;;;;;;19.48;13.68;;;15.10;42.00;;;;;;5007290;28;20018;-74
2023/04/27 10:16:54;;;;;;;19.52;14.55;;;14.90;42.80;;;;;;5006148;28;20104;-74
2023/04/27 10:19:21;;;;;;;18.02;13.07;;;15.10;42.10;;;;;;5004244;28;20466;-73
2023/04/27 10:21:52;;;;;;;17.48;12.82;;;15.00;42.20;;;;;;5006894;28;20041;-73
2023/04/27 10:24:17;;;;;;;19.02;13.75;;;15.00;43.10;;;;;;5007077;28;20565;-76
2023/04/27 10:26:47;;;;;;;19.13;14.63;;;15.40;43.40;;;;;;5005769;28;20080;-73
2023/04/27 10:29:15;;;;;;;18.42;13.35;;;15.60;42.90;;;;;;5004645;28;20264;-73
2023/04/27 10:31:47;;;;;;;17.27;13.60;;;15.80;42.00;;;;;;5007549;28;20037;-73
2023/04/27 10:34:16;;;;;;;22.27;15.07;;;16.00;40.20;;;;;;5008880;28;20022;-73
2023/04/27 10:36:42;;;;;;;20.95;14.02;;;15.60;41.20;;;;;;5012226;28;20044;-76
2023/04/27 10:39:21;;;;;;;20.73;14.07;;;15.80;42.20;;;;;;5000007;28;20022;-73
2023/04/27 10:41:52;;;;;;;17.95;12.23;;;15.90;41.40;;;;;;5001110;28;20204;-75
2023/04/27 10:44:28;;;;;;;20.38;13.00;;;16.00;40.70;;;;;;5006578;28;20047;-75
2023/04/27 10:46:56;;;;;;;20.08;14.45;;;16.40;39.50;;;;;;5000648;28;20378;-74
2023/04/27 10:49:22;;;;;;;21.42;14.27;;;16.30;39.90;;;;;;5008219;28;20113;-75
2023/04/27 10:51:51;;;;;;;20.08;12.80;;;16.40;39.40;;;;;;5002256;28;20515;-74
2023/04/27 10:54:17;;;;;;;17.60;11.90;;;16.30;38.80;;;;;;5009298;28;20112;-75
2023/04/27 10:56:43;;;;;;;18.05;12.65;;;16.30;39.20;;;;;;5007280;28;20573;-74
2023/04/27 10:59:09;;;;;;;17.40;12.25;;;16.50;38.70;;;;;;5002757;28;20014;-74
2023/04/27 11:01:36;;;;;;;20.55;13.60;;;16.50;38.80;;;;;;5006579;28;20117;-74
2023/04/27 11:04:02;;;;;;;18.00;13.55;;;16.40;38.70;;;;;;5016507;28;20025;-75
2023/04/27 11:06:29;;;;;;;19.27;14.35;;;16.40;39.60;;;;;;5009943;28;20802;-74
2023/04/27 11:08:55;;;;;;;17.70;12.77;;;16.60;40.50;;;;;;5007548;28;20048;-75
2023/04/27 11:11:21;;;;;;;19.38;13.35;;;16.60;39.00;;;;;;5003654;28;20030;-74
2023/04/27 11:13:48;;;;;;;19.80;13.93;;;16.60;38.50;;;;;;5012912;28;20077;-74
2023/04/27 11:16:18;;;;;;;18.63;13.15;;;16.50;39.20;;;;;;5003952;28;20160;-75
2023/04/27 11:18:44;;;;;;;17.58;12.93;;;16.40;38.30;;;;;;5007474;28;20059;-74
2023/04/27 11:21:19;;;;;;;18.60;12.82;;;16.40;38.40;;;;;;5007323;28;20514;-74
2023/04/27 11:23:45;;;;;;;18.52;12.70;;;16.40;38.10;;;;;;5006590;28;20479;-74
2023/04/27 11:26:16;;;;;;;17.08;11.73;;;16.80;38.60;;;;;;5011761;28;20041;-73
2023/04/27 11:29:00;;;;;;;19.05;12.63;;;16.80;37.20;;;;;;5013771;28;20032;-74
2023/04/27 11:31:27;;;;;;;19.00;13.05;;;16.70;37.00;;;;;;5010276;28;20046;-75
2023/04/27 11:33:54;;;;;;;18.05;13.05;;;16.60;37.70;;;;;;5013514;28;20029;-74
2023/04/27 11:36:22;;;;;;;17.73;12.77;;;16.60;37.60;;;;;;5013430;28;20041;-74
2023/04/27 11:38:48;;;;;;;19.20;13.45;;;16.80;39.00;;;;;;5017755;28;20919;-74
2023/04/27 11:41:14;;;;;;;19.10;12.68;;;17.00;39.00;;;;;;5015124;28;20484;-75
2023/04/27 11:43:42;;;;;;;20.38;13.63;;;17.00;38.20;;;;;;5014129;28;20022;-77
2023/04/27 11:46:09;;;;;;;18.30;13.63;;;17.30;37.70;;;;;;5012719;28;20039;-74
2023/04/27 11:48:39;;;;;;;16.80;12.65;;;17.50;37.00;;;;;;5011376;28;20144;-75
2023/04/27 11:51:06;;;;;;;18.75;13.55;;;17.50;36.90;;;;;;5013066;28;20029;-74
2023/04/27 11:53:37;;;;;;;17.17;13.52;;;17.70;37.00;;;;;;5006709;28;20478;-74
2023/04/27 11:56:05;;;;;;;20.48;13.07;;;17.90;36.20;;;;;;5006094;28;20037;-75
2023/04/27 11:58:37;;;;;;;17.20;12.68;;;17.80;37.10;;;;;;5013917;28;20029;-75
2023/04/27 12:01:04;;;;;;;19.13;14.27;;;17.80;36.80;;;;;;5008295;28;20624;-76
2023/04/27 12:03:30;;;;;;;18.58;12.77;;;17.70;36.60;;;;;;5008772;28;21397;-76
2023/04/27 12:05:56;;;;;;;17.52;13.45;;;17.70;35.70;;;;;;5011965;28;20029;-75
2023/04/27 12:08:22;;;;;;;18.45;12.98;;;18.00;35.60;;;;;;5008827;28;20022;-75
2023/04/27 12:10:48;;;;;;;18.00;12.55;;;17.80;35.80;;;;;;5012368;28;20072;-75
2023/04/27 12:13:14;;;;;;;19.13;13.50;;;17.90;36.40;;;;;;5016562;28;20562;-76
2023/04/27 12:15:41;;;;;;;17.63;12.82;;;17.50;36.00;;;;;;5014480;28;20041;-75
2023/04/27 12:18:07;;;;;;;18.75;12.93;;;17.60;36.30;;;;;;5005473;28;20033;-74
2023/04/27 12:20:33;;;;;;;17.05;13.02;;;17.80;36.70;;;;;;5009511;28;20022;-73
2023/04/27 12:22:59;;;;;;;19.35;13.93;;;17.80;36.30;;;;;;5009466;28;20038;-75
2023/04/27 12:25:25;;;;;;;18.02;13.32;;;17.20;36.90;;;;;;5012283;28;20029;-73
2023/04/27 12:27:51;;;;;;;18.27;13.27;;;17.30;37.20;;;;;;5007087;28;20374;-73
2023/04/27 12:30:17;;;;;;;18.27;12.20;;;17.50;37.40;;;;;;5006704;28;20033;-75
2023/04/27 12:32:42;;;;;;;16.83;12.10;;;17.60;36.10;;;;;;5012479;28;20493;-76